createdAt,value
2023-02-12T00:04:39.206Z,21.85
2023-02-12T00:09:41.374Z,21.70
2023-02-12T00:14:43.509Z,21.60
2023-02-12T00:19:48.033Z,21.52
2023-02-12T00:24:50.213Z,20.67
2023-02-12T00:29:52.446Z,22.50
2023-02-12T00:34:54.877Z,20.83
2023-02-12T00:39:57.042Z,18.00
2023-02-12T00:44:59.270Z,19.92
2023-02-12T00:50:01.534Z,22.52
2023-02-12T00:55:04.803Z,19.17
2023-02-12T01:00:07.626Z,20.80
2023-02-12T01:05:10.787Z,20.88
2023-02-12T01:10:12.962Z,19.33
2023-02-12T01:15:15.887Z,18.92
2023-02-12T01:20:19.551Z,19.42
2023-02-12T01:25:21.805Z,19.98
2023-02-12T01:30:24.852Z,20.48
2023-02-12T01:35:26.971Z,18.20
2023-02-12T01:40:29.355Z,26.90
2023-02-12T01:45:47.177Z,19.98
2023-02-12T01:50:51.036Z,19.52
2023-02-12T01:55:58.259Z,20.98
2023-02-12T02:01:03.683Z,23.80
2023-02-12T02:06:13.795Z,22.77
2023-02-12T02:11:34.880Z,21.05
2023-02-12T02:16:39.145Z,20.58
2023-02-12T02:21:56.381Z,18.98
2023-02-12T02:27:14.902Z,22.90
2023-02-12T02:32:38.921Z,22.60
2023-02-12T02:37:51.258Z,21.13
2023-02-12T02:43:15.029Z,21.70
2023-02-12T02:48:17.037Z,19.80
2023-02-12T02:53:26.288Z,21.42
2023-02-12T02:58:37.897Z,25.08
2023-02-12T03:04:02.586Z,19.92
2023-02-12T03:09:13.250Z,19.92
2023-02-12T03:14:23.535Z,20.73
2023-02-12T03:19:29.605Z,24.90
2023-02-12T03:24:40.353Z,19.45
2023-02-12T03:29:42.445Z,19.35
2023-02-12T03:34:53.580Z,22.90
2023-02-12T03:39:58.558Z,22.55
2023-02-12T03:45:35.387Z,23.10
2023-02-12T03:50:49.565Z,28.17
2023-02-12T03:55:55.956Z,20.95
2023-02-12T04:00:58.817Z,21.55
2023-02-12T04:06:00.920Z,23.80
2023-02-12T04:11:17.924Z,23.55
2023-02-12T04:16:28.527Z,23.80
2023-02-12T04:26:55.251Z,21.38
2023-02-12T04:32:15.932Z,20.20
2023-02-12T04:37:21.853Z,21.60
2023-02-12T04:42:24.067Z,22.98
2023-02-12T04:47:26.130Z,22.38
2023-02-12T04:52:28.170Z,21.45
2023-02-12T04:57:30.218Z,21.63
2023-02-12T05:02:33.885Z,20.77
2023-02-12T05:07:36.003Z,22.98
2023-02-12T05:12:38.088Z,25.13
2023-02-12T05:17:40.149Z,21.95
2023-02-12T05:22:42.254Z,23.60
2023-02-12T05:27:44.289Z,24.60
2023-02-12T05:32:46.362Z,24.23
2023-02-12T05:37:48.425Z,26.60
2023-02-12T05:42:50.462Z,23.55
2023-02-12T05:47:52.571Z,23.05
2023-02-12T05:52:54.778Z,25.33
2023-02-12T05:57:56.918Z,23.42
2023-02-12T06:02:59.060Z,25.45
2023-02-12T06:08:01.072Z,23.05
2023-02-12T06:13:03.292Z,24.98
2023-02-12T06:18:05.546Z,25.58
2023-02-12T06:23:07.624Z,24.98
2023-02-12T06:28:09.765Z,26.30
2023-02-12T06:33:11.765Z,25.00
2023-02-12T06:38:14.285Z,26.75
2023-02-12T06:43:16.398Z,23.88
2023-02-12T06:48:18.414Z,25.60
2023-02-12T06:53:20.477Z,24.90
2023-02-12T06:58:22.727Z,23.63
2023-02-12T07:03:24.839Z,23.13
2023-02-12T07:08:26.865Z,23.58
2023-02-12T07:13:28.841Z,25.67
2023-02-12T07:18:31.018Z,25.23
2023-02-12T07:23:34.298Z,27.23
2023-02-12T07:28:36.620Z,23.30
2023-02-12T07:33:39.393Z,23.40
2023-02-12T07:38:42.357Z,25.60
2023-02-12T07:43:46.314Z,27.13
2023-02-12T07:48:50.563Z,23.52
2023-02-12T07:53:53.147Z,27.20
2023-02-12T07:58:55.369Z,23.92
2023-02-12T08:04:00.499Z,22.60
2023-02-12T08:09:06.982Z,24.70
2023-02-12T08:14:11.645Z,25.13
2023-02-12T08:19:20.134Z,31.48
2023-02-12T08:24:24.230Z,24.90
2023-02-12T08:29:30.304Z,27.10
2023-02-12T08:34:35.041Z,23.13
2023-02-12T08:39:37.183Z,23.63
2023-02-12T08:44:40.668Z,24.67
2023-02-12T08:49:42.782Z,26.60
2023-02-12T08:54:44.948Z,22.25
2023-02-12T08:59:48.940Z,22.90
2023-02-12T09:04:50.959Z,24.30
2023-02-12T09:09:53.050Z,22.15
2023-02-12T09:14:55.180Z,22.95
2023-02-12T09:19:57.521Z,22.13
2023-02-12T09:24:59.659Z,22.50
2023-02-12T09:30:01.776Z,23.58
2023-02-12T09:35:04.035Z,23.10
2023-02-12T09:40:08.028Z,21.42
2023-02-12T09:45:26.607Z,21.67
2023-02-12T09:50:50.948Z,19.95
2023-02-12T09:55:53.070Z,20.40
2023-02-12T10:00:55.202Z,18.40
2023-02-12T10:06:02.929Z,22.63
2023-02-12T10:11:17.223Z,21.45
2023-02-12T10:16:54.567Z,20.83
2023-02-12T10:22:18.328Z,18.15
2023-02-12T10:27:34.840Z,17.80
2023-02-12T10:32:38.162Z,22.23
2023-02-12T10:37:58.066Z,19.15
2023-02-12T10:43:02.230Z,22.17
2023-02-12T10:48:13.405Z,24.70
2023-02-12T10:58:24.912Z,24.08
2023-02-12T11:03:37.524Z,26.15
2023-02-12T11:08:40.329Z,25.38
2023-02-12T11:14:03.668Z,26.45
2023-02-12T11:19:08.457Z,29.40
2023-02-12T11:24:35.595Z,30.65
2023-02-12T11:29:37.791Z,29.50
2023-02-12T11:34:40.001Z,29.90
2023-02-12T11:39:47.358Z,29.33
2023-02-12T11:44:55.553Z,29.88
2023-02-12T11:50:28.935Z,36.13
2023-02-12T11:55:34.810Z,34.53
2023-02-12T12:00:43.187Z,35.28
2023-02-12T12:05:51.390Z,30.13
2023-02-12T12:10:58.858Z,32.40
2023-02-12T12:16:31.408Z,29.00
2023-02-12T12:21:41.623Z,32.33
2023-02-12T12:26:49.177Z,30.77
2023-02-12T12:31:59.476Z,29.58
2023-02-12T12:37:20.187Z,32.33
2023-02-12T12:42:46.444Z,32.47
2023-02-12T12:47:54.375Z,30.67
2023-02-12T12:53:14.621Z,33.00
2023-02-12T12:58:30.230Z,31.70
2023-02-12T13:03:57.123Z,32.90
2023-02-12T13:09:28.701Z,34.00
2023-02-12T13:14:49.085Z,32.53
2023-02-12T13:20:06.760Z,35.63
2023-02-12T13:25:30.812Z,36.85
2023-02-12T13:30:44.499Z,35.17
2023-02-12T13:35:49.535Z,32.95
2023-02-12T13:40:56.625Z,30.63
2023-02-12T13:46:11.847Z,31.08
2023-02-12T13:51:22.667Z,33.03
2023-02-12T13:56:37.934Z,31.00
2023-02-12T14:01:46.514Z,33.22
2023-02-12T14:06:58.689Z,32.45
2023-02-12T14:12:03.684Z,32.30
2023-02-12T14:17:33.243Z,37.00
2023-02-12T14:22:35.295Z,35.70
2023-02-12T14:27:45.888Z,36.80
2023-02-12T14:32:55.275Z,39.53
2023-02-12T14:37:59.998Z,36.15
2023-02-12T14:43:21.911Z,34.38
2023-02-12T14:48:45.835Z,33.47
2023-02-12T14:53:49.358Z,31.83
2023-02-12T14:58:54.808Z,33.88
2023-02-12T15:03:58.190Z,34.95
2023-02-12T15:09:11.457Z,33.35
2023-02-12T15:14:24.671Z,33.28
2023-02-12T15:19:57.383Z,38.47
2023-02-12T15:25:27.294Z,34.15
2023-02-12T15:30:35.242Z,34.80
2023-02-12T15:35:43.895Z,34.58
2023-02-12T15:40:56.822Z,32.00
2023-02-12T15:45:59.129Z,33.85
2023-02-12T15:51:24.083Z,32.13
2023-02-12T15:56:27.065Z,35.65
2023-02-12T16:01:35.192Z,34.72
2023-02-12T16:06:37.614Z,37.92
2023-02-12T16:11:42.755Z,32.15
2023-02-12T16:16:51.443Z,34.40
2023-02-12T16:22:15.623Z,39.67
2023-02-12T16:27:24.437Z,39.50
2023-02-12T16:32:37.238Z,38.75
2023-02-12T16:37:39.320Z,39.00
2023-02-12T16:42:47.207Z,45.35
2023-02-12T16:47:50.203Z,38.05
2023-02-12T16:53:01.261Z,38.75
2023-02-12T16:58:03.550Z,39.17
2023-02-12T17:03:05.736Z,37.90
2023-02-12T17:08:16.644Z,38.50
2023-02-12T17:13:20.795Z,38.33
2023-02-12T17:18:24.054Z,37.30
2023-02-12T17:23:26.446Z,40.35
2023-02-12T17:28:29.393Z,39.17
2023-02-12T17:33:32.671Z,38.72
2023-02-12T17:38:34.816Z,34.75
2023-02-12T17:43:37.151Z,39.53
2023-02-12T17:48:40.435Z,40.88
2023-02-12T17:53:43.099Z,40.15
2023-02-12T17:58:46.180Z,41.55
2023-02-12T18:03:48.484Z,44.38
2023-02-12T18:08:51.138Z,43.42
2023-02-12T18:13:55.766Z,50.15
2023-02-12T18:18:59.725Z,44.65
2023-02-12T18:24:02.656Z,40.05
2023-02-12T18:29:05.082Z,39.83
2023-02-12T18:34:07.624Z,49.85
2023-02-12T18:39:09.951Z,42.33
2023-02-12T18:44:14.153Z,42.20
2023-02-12T18:49:16.601Z,46.40
2023-02-12T18:54:18.673Z,47.47
2023-02-12T18:59:21.750Z,44.28
2023-02-12T19:04:25.275Z,39.30
2023-02-12T19:09:27.504Z,41.85
2023-02-12T19:14:29.619Z,43.83
2023-02-12T19:19:31.709Z,44.83
2023-02-12T19:24:45.855Z,37.67
2023-02-12T19:29:48.971Z,43.42
2023-02-12T19:34:51.364Z,41.00
2023-02-12T19:39:53.548Z,45.08
2023-02-12T19:44:55.591Z,45.17
2023-02-12T19:49:57.572Z,38.90
2023-02-12T19:54:59.704Z,45.42
2023-02-12T20:00:02.054Z,42.72
2023-02-12T20:05:08.093Z,42.10
2023-02-12T20:10:11.717Z,44.72
2023-02-12T20:15:13.750Z,44.63
2023-02-12T20:20:15.864Z,46.97
2023-02-12T20:25:17.884Z,41.70
2023-02-12T20:30:20.626Z,48.17
2023-02-12T20:35:22.668Z,45.17
2023-02-12T20:40:24.742Z,44.08
2023-02-12T20:45:27.074Z,47.35
2023-02-12T20:50:29.166Z,52.00
2023-02-12T20:55:32.605Z,47.15
2023-02-12T21:00:34.646Z,53.38
2023-02-12T21:05:37.402Z,48.63
2023-02-12T21:10:39.439Z,49.38
2023-02-12T21:15:41.539Z,47.67
2023-02-12T21:20:43.623Z,49.40
2023-02-12T21:25:45.696Z,50.40
2023-02-12T21:30:47.712Z,53.50
2023-02-12T21:35:49.779Z,51.13
2023-02-12T21:40:51.789Z,54.10
2023-02-12T21:45:53.915Z,54.53
2023-02-12T21:50:56.854Z,56.78
2023-02-12T21:56:03.880Z,57.00
2023-02-12T22:01:14.695Z,59.42
2023-02-12T22:06:19.133Z,59.80
2023-02-12T22:11:22.205Z,58.58
2023-02-12T22:16:26.804Z,63.55
2023-02-12T22:21:31.324Z,57.05
2023-02-12T22:26:33.640Z,54.22
2023-02-12T22:31:37.689Z,56.25
2023-02-12T22:36:41.195Z,51.58
2023-02-12T22:41:43.359Z,57.42
2023-02-12T22:46:45.421Z,58.63
2023-02-12T22:51:47.568Z,54.25
2023-02-12T22:56:51.221Z,57.35
2023-02-12T23:01:53.435Z,59.17
2023-02-12T23:06:55.529Z,61.63
2023-02-12T23:11:57.592Z,58.80
2023-02-12T23:16:59.731Z,57.85
2023-02-12T23:22:02.128Z,56.63
2023-02-12T23:27:04.226Z,57.55
2023-02-12T23:32:06.658Z,56.58
2023-02-12T23:37:08.658Z,60.00
2023-02-12T23:42:10.700Z,54.58
2023-02-12T23:47:12.716Z,55.20
2023-02-12T23:52:14.784Z,58.78
2023-02-12T23:57:16.878Z,58.97
